createdAt,value
2022-10-18T00:00:43.609Z,15.20
2022-10-18T00:01:43.603Z,16.80
2022-10-18T00:02:44.591Z,16.70
2022-10-18T00:04:43.580Z,16.60
2022-10-18T00:05:43.555Z,16.60
2022-10-18T00:06:43.711Z,15.50
2022-10-18T00:07:43.539Z,16.80
2022-10-18T00:08:43.524Z,15.60
2022-10-18T00:09:43.527Z,16.50
2022-10-18T00:10:43.504Z,16.80
2022-10-18T00:11:43.493Z,16.10
2022-10-18T00:12:43.564Z,13.90
2022-10-18T00:13:43.478Z,14.10
2022-10-18T00:14:43.473Z,14.50
2022-10-18T00:15:43.458Z,15.90
2022-10-18T00:16:43.445Z,17.60
2022-10-18T00:17:43.434Z,16.20
2022-10-18T00:18:43.440Z,16.00
2022-10-18T00:19:43.415Z,15.80
2022-10-18T00:20:43.406Z,16.40
2022-10-18T00:22:43.385Z,13.80
2022-10-18T00:23:43.387Z,14.10
2022-10-18T00:24:43.365Z,11.50
2022-10-18T00:25:43.354Z,14.40
2022-10-18T00:26:43.346Z,15.00
2022-10-18T00:27:43.332Z,13.80
2022-10-18T00:28:43.386Z,13.90
2022-10-18T00:29:43.316Z,13.80
2022-10-18T00:30:43.340Z,13.20
2022-10-18T00:31:43.298Z,14.60
2022-10-18T00:32:43.289Z,14.20
2022-10-18T00:33:43.292Z,14.60
2022-10-18T00:34:43.270Z,15.00
2022-10-18T00:35:43.262Z,15.60
2022-10-18T00:36:43.247Z,15.40
2022-10-18T00:37:43.263Z,16.00
2022-10-18T00:38:43.238Z,16.10
2022-10-18T00:39:43.256Z,16.40
2022-10-18T00:40:43.209Z,16.10
2022-10-18T00:41:43.200Z,15.20
2022-10-18T00:42:43.187Z,17.30
2022-10-18T00:43:43.189Z,17.20
2022-10-18T00:44:43.171Z,15.90
2022-10-18T00:45:43.161Z,16.20
2022-10-18T00:46:43.155Z,15.00
2022-10-18T00:47:43.141Z,17.60
2022-10-18T00:48:43.161Z,17.90
2022-10-18T00:49:43.114Z,17.10
2022-10-18T00:50:43.107Z,13.20
2022-10-18T00:51:43.097Z,16.50
2022-10-18T00:52:43.089Z,17.50
2022-10-18T00:53:43.089Z,15.50
2022-10-18T00:54:43.066Z,13.10
2022-10-18T00:55:43.056Z,10.30
2022-10-18T00:56:43.046Z,11.20
2022-10-18T00:57:43.119Z,10.80
2022-10-18T00:58:43.039Z,11.60
2022-10-18T00:59:43.021Z,12.10
2022-10-18T01:00:43.009Z,10.20
2022-10-18T01:01:43.287Z,10.90
2022-10-18T01:02:42.989Z,11.80
2022-10-18T01:03:42.984Z,8.90
2022-10-18T01:04:53.152Z,9.00
2022-10-18T01:05:42.959Z,9.10
2022-10-18T01:06:43.031Z,10.20
2022-10-18T01:07:42.946Z,9.60
2022-10-18T01:08:42.939Z,8.20
2022-10-18T01:09:42.914Z,8.80
2022-10-18T01:10:42.909Z,8.50
2022-10-18T01:11:42.897Z,9.60
2022-10-18T01:12:42.890Z,8.10
2022-10-18T01:13:42.889Z,8.20
2022-10-18T01:14:42.867Z,9.00
2022-10-18T01:15:42.856Z,9.00
2022-10-18T01:16:42.850Z,8.10
2022-10-18T01:17:42.845Z,6.30
2022-10-18T01:18:42.841Z,5.70
2022-10-18T01:19:42.823Z,6.00
2022-10-18T01:20:42.812Z,6.30
2022-10-18T01:21:42.803Z,6.50
2022-10-18T01:22:42.797Z,6.90
2022-10-18T01:23:42.797Z,5.70
2022-10-18T01:24:42.771Z,5.90
2022-10-18T01:25:42.755Z,6.00
2022-10-18T01:26:43.751Z,5.30
2022-10-18T01:27:42.739Z,5.40
2022-10-18T01:28:42.796Z,7.70
2022-10-18T01:29:42.725Z,6.00
2022-10-18T01:30:42.717Z,6.20
2022-10-18T01:31:42.704Z,3.30
2022-10-18T01:32:42.747Z,4.10
2022-10-18T01:33:42.705Z,5.60
2022-10-18T01:34:42.678Z,4.90
2022-10-18T01:35:42.666Z,4.20
2022-10-18T01:36:42.656Z,4.00
2022-10-18T01:37:42.639Z,4.00
2022-10-18T01:38:42.644Z,5.00
2022-10-18T01:39:42.624Z,3.90
2022-10-18T01:40:42.611Z,4.80
2022-10-18T01:41:42.603Z,10.90
2022-10-18T01:42:42.594Z,9.00
2022-10-18T01:43:42.597Z,7.00
2022-10-18T01:44:42.575Z,8.20
2022-10-18T01:45:42.562Z,9.40
2022-10-18T01:46:42.555Z,8.30
2022-10-18T01:47:42.543Z,7.80
2022-10-18T01:48:42.545Z,10.50
2022-10-18T01:49:42.522Z,13.20
2022-10-18T01:50:42.513Z,13.60
2022-10-18T01:51:42.507Z,12.50
2022-10-18T01:52:42.495Z,12.10
2022-10-18T01:53:42.493Z,11.50
2022-10-18T01:54:42.515Z,9.80
2022-10-18T01:55:42.466Z,13.80
2022-10-18T01:56:42.455Z,16.70
2022-10-18T01:57:42.444Z,15.40
2022-10-18T01:58:42.445Z,15.10
2022-10-18T01:59:42.426Z,12.80
2022-10-18T02:00:42.413Z,14.60
2022-10-18T02:01:42.419Z,15.20
2022-10-18T02:02:42.398Z,16.20
2022-10-18T02:03:42.392Z,12.30
2022-10-18T02:04:42.373Z,12.80
2022-10-18T02:05:42.454Z,13.60
2022-10-18T02:06:42.352Z,14.40
2022-10-18T02:07:42.341Z,14.20
2022-10-18T02:08:42.411Z,12.60
2022-10-18T02:09:43.320Z,12.10
2022-10-18T02:10:42.315Z,6.70
2022-10-18T02:11:42.302Z,5.40
2022-10-18T02:12:42.297Z,6.60
2022-10-18T02:13:42.367Z,6.00
2022-10-18T02:14:42.273Z,4.60
2022-10-18T02:15:42.262Z,3.60
2022-10-18T02:16:42.253Z,3.90
2022-10-18T02:17:42.248Z,4.60
2022-10-18T02:18:42.261Z,4.80
2022-10-18T02:19:42.225Z,4.60
2022-10-18T02:20:42.217Z,4.60
2022-10-18T02:21:42.207Z,5.80
2022-10-18T02:22:42.197Z,7.40
2022-10-18T02:23:42.199Z,9.10
2022-10-18T02:24:42.175Z,10.30
2022-10-18T02:25:42.165Z,9.30
2022-10-18T02:26:42.156Z,7.80
2022-10-18T02:27:42.149Z,8.90
2022-10-18T02:28:42.144Z,8.60
2022-10-18T02:29:42.125Z,9.40
2022-10-18T02:30:42.115Z,9.00
2022-10-18T02:31:42.119Z,7.90
2022-10-18T02:32:42.095Z,8.10
2022-10-18T02:33:42.098Z,8.90
2022-10-18T02:34:42.078Z,9.40
2022-10-18T02:35:42.094Z,8.70
2022-10-18T02:36:42.059Z,6.50
2022-10-18T02:37:42.050Z,8.10
2022-10-18T02:38:42.046Z,7.60
2022-10-18T02:39:42.024Z,7.60
2022-10-18T02:40:42.019Z,7.10
2022-10-18T02:41:42.008Z,6.70
2022-10-18T02:42:42.001Z,6.60
2022-10-18T02:43:41.998Z,6.80
2022-10-18T02:44:41.977Z,6.80
2022-10-18T02:45:41.971Z,7.40
2022-10-18T02:46:41.959Z,7.30
2022-10-18T02:47:41.950Z,7.70
2022-10-18T02:48:41.953Z,7.00
2022-10-18T02:49:41.930Z,7.20
2022-10-18T02:50:41.921Z,7.10
2022-10-18T02:51:41.908Z,7.30
2022-10-18T02:52:41.899Z,8.40
2022-10-18T02:53:41.903Z,7.30
2022-10-18T02:54:41.882Z,7.80
2022-10-18T02:55:41.882Z,8.50
2022-10-18T02:56:41.891Z,9.00
2022-10-18T02:57:41.852Z,8.30
2022-10-18T02:58:41.854Z,8.20
2022-10-18T02:59:41.828Z,7.50
2022-10-18T03:00:41.850Z,7.80
2022-10-18T03:01:41.839Z,7.30
2022-10-18T03:02:41.802Z,7.20
2022-10-18T03:03:41.807Z,7.20
2022-10-18T03:04:41.785Z,7.30
2022-10-18T03:05:41.772Z,6.80
2022-10-18T03:06:41.759Z,6.90
2022-10-18T03:07:41.749Z,6.20
2022-10-18T03:08:41.748Z,6.60
2022-10-18T03:09:42.036Z,6.60
2022-10-18T03:10:41.721Z,6.10
2022-10-18T03:11:41.712Z,6.30
2022-10-18T03:12:41.700Z,6.30
2022-10-18T03:13:41.707Z,6.60
2022-10-18T03:14:41.673Z,5.90
2022-10-18T03:15:42.672Z,6.00
2022-10-18T03:16:41.661Z,6.20
2022-10-18T03:17:41.653Z,6.60
2022-10-18T03:18:41.655Z,5.90
2022-10-18T03:19:41.635Z,6.50
2022-10-18T03:20:41.666Z,5.70
2022-10-18T03:21:41.612Z,5.80
2022-10-18T03:22:41.602Z,6.30
2022-10-18T03:23:41.603Z,6.10
2022-10-18T03:24:41.582Z,6.50
2022-10-18T03:25:44.215Z,6.70
2022-10-18T03:26:41.560Z,5.90
2022-10-18T03:27:41.553Z,6.00
2022-10-18T03:28:41.576Z,6.00
2022-10-18T03:29:41.528Z,6.40
2022-10-18T03:30:41.517Z,5.50
2022-10-18T03:31:41.511Z,5.80
2022-10-18T03:32:41.502Z,5.70
2022-10-18T03:33:41.606Z,5.80
2022-10-18T03:34:41.484Z,6.50
2022-10-18T03:35:41.475Z,6.60
2022-10-18T03:36:41.462Z,6.20
2022-10-18T03:37:41.449Z,6.00
2022-10-18T03:38:41.451Z,6.00
2022-10-18T03:39:41.429Z,6.00
2022-10-18T03:40:41.420Z,6.30
2022-10-18T03:41:41.414Z,6.20
2022-10-18T03:42:41.414Z,6.00
2022-10-18T03:43:41.405Z,6.00
2022-10-18T03:44:41.382Z,6.60
2022-10-18T03:45:41.372Z,7.30
2022-10-18T03:46:41.364Z,7.50
2022-10-18T03:47:41.355Z,7.50
2022-10-18T03:48:41.353Z,8.60
2022-10-18T03:49:41.339Z,8.30
2022-10-18T03:50:41.320Z,7.90
2022-10-18T03:51:41.309Z,8.10
2022-10-18T03:52:41.302Z,8.40
2022-10-18T03:53:41.300Z,8.50
2022-10-18T03:54:41.283Z,7.70
2022-10-18T03:55:41.270Z,9.20
2022-10-18T03:56:41.258Z,9.70
2022-10-18T03:57:41.253Z,10.20
2022-10-18T03:58:41.255Z,9.50
2022-10-18T03:59:41.273Z,9.50
2022-10-18T04:00:41.222Z,9.00
2022-10-18T04:01:41.250Z,8.90
2022-10-18T04:02:41.206Z,8.60
2022-10-18T04:03:41.207Z,8.20
2022-10-18T04:04:41.204Z,8.10
2022-10-18T04:05:41.178Z,8.30
2022-10-18T04:06:41.162Z,8.60
2022-10-18T04:07:41.170Z,9.20
2022-10-18T04:08:41.166Z,8.50
2022-10-18T04:09:41.132Z,9.50
2022-10-18T04:10:41.126Z,8.30
2022-10-18T04:11:41.114Z,9.10
2022-10-18T04:12:41.105Z,10.10
2022-10-18T04:13:41.112Z,9.80
2022-10-18T04:14:41.090Z,10.40
2022-10-18T04:15:41.078Z,13.20
2022-10-18T04:16:41.069Z,14.60
2022-10-18T04:17:41.058Z,15.10
2022-10-18T04:18:41.057Z,16.90
2022-10-18T04:19:41.035Z,15.10
2022-10-18T04:20:41.034Z,13.00
2022-10-18T04:21:41.016Z,12.70
2022-10-18T04:22:41.009Z,12.40
2022-10-18T04:23:41.013Z,12.00
2022-10-18T04:24:40.989Z,11.80
2022-10-18T04:25:41.013Z,12.80
2022-10-18T04:26:40.972Z,12.00
2022-10-18T04:27:40.965Z,13.80
2022-10-18T04:28:41.011Z,15.90
2022-10-18T04:29:40.943Z,14.40
2022-10-18T04:30:40.935Z,13.50
2022-10-18T04:31:40.948Z,15.30
2022-10-18T04:32:40.909Z,14.50
2022-10-18T04:33:40.911Z,12.50
2022-10-18T04:34:40.892Z,12.00
2022-10-18T04:35:40.889Z,13.00
2022-10-18T04:36:40.870Z,12.50
2022-10-18T04:37:40.862Z,12.30
2022-10-18T04:38:40.863Z,15.40
2022-10-18T04:39:40.843Z,14.60
2022-10-18T04:40:40.828Z,13.80
2022-10-18T04:41:40.822Z,14.50
2022-10-18T04:42:40.810Z,14.20
2022-10-18T04:43:40.835Z,12.10
2022-10-18T04:44:40.787Z,12.90
2022-10-18T04:45:40.777Z,12.40
2022-10-18T04:46:40.765Z,12.20
2022-10-18T04:47:40.759Z,12.10
2022-10-18T04:48:40.763Z,10.90
2022-10-18T04:49:40.734Z,11.90
2022-10-18T04:50:40.727Z,11.10
2022-10-18T04:51:40.717Z,11.10
2022-10-18T04:52:40.735Z,11.40
2022-10-18T04:53:40.705Z,11.10
2022-10-18T04:54:40.683Z,11.30
2022-10-18T04:55:40.678Z,10.90
2022-10-18T04:56:40.664Z,10.20
2022-10-18T04:57:40.657Z,11.90
2022-10-18T04:58:40.653Z,13.60
2022-10-18T04:59:40.636Z,12.40
2022-10-18T05:00:40.622Z,12.20
2022-10-18T05:01:40.691Z,14.40
2022-10-18T05:02:40.599Z,17.80
2022-10-18T05:03:40.602Z,17.70
2022-10-18T05:04:40.582Z,20.80
2022-10-18T05:06:00.140Z,26.50
2022-10-18T05:06:42.565Z,28.00
2022-10-18T05:07:40.555Z,24.80
2022-10-18T05:08:40.553Z,25.20
2022-10-18T05:09:40.536Z,17.30
2022-10-18T05:10:40.520Z,16.10
2022-10-18T05:11:40.511Z,16.40
2022-10-18T05:12:40.502Z,15.50
2022-10-18T05:13:40.504Z,16.40
2022-10-18T05:14:40.482Z,14.80
2022-10-18T05:15:40.473Z,15.20
2022-10-18T05:16:40.482Z,14.60
2022-10-18T05:17:40.444Z,13.70
2022-10-18T05:18:40.452Z,14.40
2022-10-18T05:19:40.430Z,13.90
2022-10-18T05:20:40.445Z,16.90
2022-10-18T05:21:40.412Z,17.70
2022-10-18T05:22:40.396Z,14.30
2022-10-18T05:23:40.405Z,16.50
2022-10-18T05:24:40.388Z,18.00
2022-10-18T05:25:40.384Z,17.40
2022-10-18T05:26:40.366Z,16.20
2022-10-18T05:27:40.354Z,16.70
2022-10-18T05:28:41.256Z,17.70
2022-10-18T05:29:41.336Z,16.70
2022-10-18T05:30:40.326Z,17.20
2022-10-18T05:31:40.313Z,17.80
2022-10-18T05:32:40.305Z,21.90
2022-10-18T05:33:40.302Z,17.50
2022-10-18T05:34:40.289Z,16.60
2022-10-18T05:35:40.278Z,16.00
2022-10-18T05:36:40.267Z,17.60
2022-10-18T05:37:40.255Z,17.40
2022-10-18T05:38:40.280Z,21.50
2022-10-18T05:39:40.240Z,16.60
2022-10-18T05:40:40.225Z,15.60
2022-10-18T05:41:40.215Z,15.50
2022-10-18T05:42:40.253Z,16.20
2022-10-18T05:43:40.195Z,17.30
2022-10-18T05:44:40.196Z,21.20
2022-10-18T05:45:40.184Z,17.90
2022-10-18T05:46:40.161Z,17.70
2022-10-18T05:47:40.153Z,18.70
2022-10-18T05:48:40.134Z,17.90
2022-10-18T05:49:40.143Z,19.40
2022-10-18T05:50:40.475Z,21.30
2022-10-18T05:51:40.114Z,19.10
2022-10-18T05:52:40.104Z,20.90
2022-10-18T05:53:40.089Z,23.50
2022-10-18T05:54:40.088Z,23.70
2022-10-18T05:55:40.069Z,25.30
2022-10-18T05:56:40.135Z,22.10
2022-10-18T05:57:40.046Z,21.30
2022-10-18T05:58:40.038Z,21.10
2022-10-18T05:59:40.036Z,22.20
2022-10-18T06:00:40.021Z,21.10
2022-10-18T06:01:40.011Z,20.90
2022-10-18T06:02:40.029Z,19.80
2022-10-18T06:03:39.986Z,19.50
2022-10-18T06:04:39.997Z,20.70
2022-10-18T06:06:40.061Z,18.70
2022-10-18T06:07:39.943Z,19.70
2022-10-18T06:08:39.933Z,20.80
2022-10-18T06:09:39.936Z,20.50
2022-10-18T06:10:39.965Z,21.30
2022-10-18T06:11:39.908Z,19.50
2022-10-18T06:12:39.897Z,20.70
2022-10-18T06:13:39.890Z,21.10
2022-10-18T06:14:39.885Z,19.40
2022-10-18T06:15:39.868Z,16.30
2022-10-18T06:16:39.893Z,17.80
2022-10-18T06:17:39.851Z,17.40
2022-10-18T06:18:39.838Z,18.40
2022-10-18T06:19:39.834Z,19.40
2022-10-18T06:20:39.820Z,19.80
2022-10-18T06:21:39.801Z,17.80
2022-10-18T06:22:39.791Z,18.20
2022-10-18T06:23:39.786Z,20.90
2022-10-18T06:24:39.783Z,19.50
2022-10-18T06:25:39.763Z,18.90
2022-10-18T06:26:39.753Z,22.70
2022-10-18T06:27:39.744Z,21.80
2022-10-18T06:28:39.762Z,27.80
2022-10-18T06:29:39.742Z,35.20
2022-10-18T06:30:39.711Z,28.50
2022-10-18T06:31:39.707Z,27.60
2022-10-18T06:32:39.690Z,30.40
2022-10-18T06:33:39.686Z,25.40
2022-10-18T06:34:39.680Z,21.50
2022-10-18T06:35:39.663Z,22.80
2022-10-18T06:36:39.681Z,23.60
2022-10-18T06:37:39.705Z,22.70
2022-10-18T06:38:39.666Z,23.10
2022-10-18T06:39:39.626Z,25.60
2022-10-18T06:40:39.612Z,35.60
2022-10-18T06:41:39.595Z,47.80
2022-10-18T06:42:39.595Z,35.30
2022-10-18T06:43:39.576Z,24.80
2022-10-18T06:44:39.582Z,28.00
2022-10-18T06:45:39.555Z,26.90
2022-10-18T06:46:39.544Z,23.20
2022-10-18T06:47:39.537Z,29.20
2022-10-18T06:48:39.532Z,24.30
2022-10-18T06:49:39.513Z,28.60
2022-10-18T06:50:39.501Z,24.90
2022-10-18T06:51:39.485Z,22.50
2022-10-18T06:52:40.485Z,20.20
2022-10-18T06:53:44.183Z,21.20
2022-10-18T06:54:41.456Z,20.70
2022-10-18T06:55:39.451Z,20.90
2022-10-18T06:56:39.434Z,21.60
2022-10-18T06:57:39.431Z,21.10
2022-10-18T06:58:39.434Z,23.80
2022-10-18T06:59:39.494Z,22.10
2022-10-18T07:00:39.397Z,21.30
2022-10-18T07:01:39.419Z,22.00
2022-10-18T07:02:39.375Z,23.70
2022-10-18T07:03:39.376Z,23.00
2022-10-18T07:04:39.375Z,21.90
2022-10-18T07:06:05.258Z,21.60
2022-10-18T07:06:39.330Z,21.90
2022-10-18T07:07:39.322Z,31.40
2022-10-18T07:08:39.329Z,23.40
2022-10-18T07:09:39.307Z,19.70
2022-10-18T07:10:39.294Z,22.00
2022-10-18T07:11:39.288Z,22.00
2022-10-18T07:12:39.279Z,19.30
2022-10-18T07:13:39.274Z,21.70
2022-10-18T07:14:39.252Z,20.10
2022-10-18T07:15:39.254Z,20.30
2022-10-18T07:16:39.240Z,18.10
2022-10-18T07:17:39.222Z,25.10
2022-10-18T07:18:39.223Z,20.70
2022-10-18T07:19:39.206Z,20.90
2022-10-18T07:20:39.187Z,19.30
2022-10-18T07:21:39.184Z,19.10
2022-10-18T07:22:39.183Z,19.50
2022-10-18T07:23:39.173Z,20.40
2022-10-18T07:24:39.152Z,22.30
2022-10-18T07:25:39.137Z,21.70
2022-10-18T07:26:39.128Z,20.90
2022-10-18T07:27:39.116Z,22.20
2022-10-18T07:28:39.152Z,21.40
2022-10-18T07:29:39.098Z,22.50
2022-10-18T07:30:39.083Z,21.80
2022-10-18T07:31:39.100Z,21.60
2022-10-18T07:32:39.072Z,21.80
2022-10-18T07:33:39.068Z,24.10
2022-10-18T07:34:39.044Z,21.80
2022-10-18T07:35:39.037Z,21.60
2022-10-18T07:36:39.023Z,21.80
2022-10-18T07:37:39.014Z,20.70
2022-10-18T07:38:39.001Z,20.90
2022-10-18T07:39:39.002Z,23.60
2022-10-18T07:40:38.984Z,23.70
2022-10-18T07:41:38.972Z,21.70
2022-10-18T07:42:39.026Z,21.70
2022-10-18T07:43:38.977Z,20.60
2022-10-18T07:44:38.956Z,19.90
2022-10-18T07:45:38.938Z,19.60
2022-10-18T07:46:38.923Z,19.60
2022-10-18T07:47:39.279Z,19.90
2022-10-18T07:48:38.899Z,19.90
2022-10-18T07:49:38.904Z,19.90
2022-10-18T07:50:38.882Z,18.90
2022-10-18T07:51:38.870Z,19.70
2022-10-18T07:52:38.861Z,22.30
2022-10-18T07:53:38.854Z,20.30
2022-10-18T07:54:38.914Z,21.20
2022-10-18T07:55:38.832Z,19.00
2022-10-18T07:56:38.822Z,20.20
2022-10-18T07:57:38.810Z,21.50
2022-10-18T07:58:38.801Z,20.90
2022-10-18T07:59:38.807Z,25.40
2022-10-18T08:00:38.793Z,23.60
2022-10-18T08:01:38.801Z,23.60
2022-10-18T08:02:38.768Z,25.90
2022-10-18T08:03:38.754Z,29.40
2022-10-18T08:04:38.752Z,33.30
2022-10-18T08:05:38.734Z,33.60
2022-10-18T08:06:38.722Z,39.20
2022-10-18T08:07:38.715Z,35.70
2022-10-18T08:08:38.704Z,36.50
2022-10-18T08:09:38.710Z,31.60
2022-10-18T08:10:38.702Z,28.30
2022-10-18T08:11:38.670Z,25.00
2022-10-18T08:12:38.665Z,23.40
2022-10-18T08:13:38.652Z,23.40
2022-10-18T08:14:38.650Z,22.20
2022-10-18T08:15:38.631Z,21.60
2022-10-18T08:16:38.626Z,22.50
2022-10-18T08:17:38.612Z,27.40
2022-10-18T08:18:38.599Z,28.40
2022-10-18T08:19:44.616Z,23.60
2022-10-18T08:20:39.575Z,27.70
2022-10-18T08:21:38.568Z,24.10
2022-10-18T08:22:38.558Z,21.60
2022-10-18T08:23:38.547Z,22.10
2022-10-18T08:24:38.548Z,21.90
2022-10-18T08:25:38.537Z,23.30
2022-10-18T08:26:38.523Z,23.80
2022-10-18T08:27:38.503Z,24.80
2022-10-18T08:28:38.528Z,26.30
2022-10-18T08:29:38.534Z,23.80
2022-10-18T08:30:38.490Z,31.60
2022-10-18T08:31:38.464Z,22.90
2022-10-18T08:32:38.453Z,21.60
2022-10-18T08:33:38.446Z,24.00
2022-10-18T08:35:39.422Z,25.60
2022-10-18T08:36:38.412Z,22.50
2022-10-18T08:37:38.399Z,24.40
2022-10-18T08:38:38.388Z,21.40
2022-10-18T08:39:38.396Z,21.50
2022-10-18T08:40:38.373Z,24.30
2022-10-18T08:41:38.386Z,22.90
2022-10-18T08:42:38.351Z,21.80
2022-10-18T08:43:38.364Z,21.50
2022-10-18T08:44:38.335Z,20.10
2022-10-18T08:45:42.522Z,27.10
2022-10-18T08:46:39.308Z,21.30
2022-10-18T08:47:38.303Z,21.60
2022-10-18T08:48:38.301Z,20.10
2022-10-18T08:49:38.389Z,23.40
2022-10-18T08:50:38.269Z,22.30
2022-10-18T08:51:38.262Z,22.00
2022-10-18T08:52:38.246Z,23.70
2022-10-18T08:53:39.962Z,26.30
2022-10-18T08:54:38.229Z,23.20
2022-10-18T08:55:38.219Z,23.40
2022-10-18T08:56:38.211Z,25.50
2022-10-18T08:57:38.199Z,22.80
2022-10-18T08:58:38.199Z,24.90
2022-10-18T08:59:38.180Z,23.10
2022-10-18T09:00:38.172Z,24.60
2022-10-18T09:01:38.238Z,24.70
2022-10-18T09:02:38.157Z,23.50
2022-10-18T09:03:38.235Z,23.80
2022-10-18T09:04:38.130Z,21.60
2022-10-18T09:05:38.119Z,22.10
2022-10-18T09:06:38.111Z,24.50
2022-10-18T09:07:38.097Z,23.60
2022-10-18T09:08:38.098Z,23.50
2022-10-18T09:09:38.086Z,22.90
2022-10-18T09:10:38.068Z,21.70
2022-10-18T09:11:38.068Z,24.40
2022-10-18T09:12:38.050Z,24.80
2022-10-18T09:13:38.061Z,24.80
2022-10-18T09:14:38.028Z,22.80
2022-10-18T09:15:38.018Z,23.30
2022-10-18T09:16:38.009Z,23.40
2022-10-18T09:17:38.000Z,23.40
2022-10-18T09:18:38.003Z,21.70
2022-10-18T09:19:37.978Z,20.70
2022-10-18T09:20:37.968Z,20.80
2022-10-18T09:21:37.960Z,22.10
2022-10-18T09:22:37.946Z,21.80
2022-10-18T09:23:37.944Z,22.60
2022-10-18T09:24:37.970Z,24.90
2022-10-18T09:25:37.917Z,23.60
2022-10-18T09:26:37.907Z,24.10
2022-10-18T09:27:37.894Z,24.70
2022-10-18T09:28:37.969Z,22.20
2022-10-18T09:29:37.896Z,21.80
2022-10-18T09:30:37.869Z,22.20
2022-10-18T09:31:37.857Z,20.80
2022-10-18T09:32:37.845Z,22.50
2022-10-18T09:33:37.836Z,22.00
2022-10-18T09:34:37.834Z,21.30
2022-10-18T09:35:37.817Z,20.90
2022-10-18T09:36:37.808Z,21.40
2022-10-18T09:37:37.794Z,19.80
2022-10-18T09:38:37.782Z,20.40
2022-10-18T09:39:37.787Z,20.40
2022-10-18T09:40:37.760Z,19.40
2022-10-18T09:41:37.752Z,19.80
2022-10-18T09:42:37.741Z,18.90
2022-10-18T09:43:37.732Z,19.40
2022-10-18T09:44:37.735Z,17.60
2022-10-18T09:45:37.714Z,19.10
2022-10-18T09:46:37.707Z,20.40
2022-10-18T09:47:37.708Z,23.20
2022-10-18T09:48:37.686Z,20.50
2022-10-18T09:49:37.693Z,16.60
2022-10-18T09:50:37.675Z,17.10
2022-10-18T09:51:37.659Z,16.40
2022-10-18T09:52:37.643Z,15.80
2022-10-18T09:53:37.635Z,17.40
2022-10-18T09:54:37.637Z,18.60
2022-10-18T09:55:37.615Z,17.40
2022-10-18T09:56:40.854Z,18.50
2022-10-18T09:57:37.591Z,16.20
2022-10-18T09:58:37.617Z,16.80
2022-10-18T09:59:37.581Z,15.60
2022-10-18T10:00:37.563Z,13.90
2022-10-18T10:01:37.556Z,11.90
2022-10-18T10:02:37.585Z,11.80
2022-10-18T10:03:37.535Z,11.00
2022-10-18T10:04:37.536Z,11.50
2022-10-18T10:05:37.515Z,11.70
2022-10-18T10:06:37.504Z,11.30
2022-10-18T10:07:37.899Z,11.70
2022-10-18T10:08:37.485Z,12.10
2022-10-18T10:09:37.484Z,10.60
2022-10-18T10:10:38.463Z,10.50
2022-10-18T10:11:37.454Z,10.30
2022-10-18T10:12:37.452Z,9.90
2022-10-18T10:13:37.463Z,9.90
2022-10-18T10:14:37.428Z,10.90
2022-10-18T10:15:39.413Z,10.00
2022-10-18T10:16:37.407Z,9.80
2022-10-18T10:17:37.397Z,10.50
2022-10-18T10:18:37.394Z,10.90
2022-10-18T10:19:37.376Z,11.20
2022-10-18T10:20:37.364Z,11.90
2022-10-18T10:21:37.349Z,12.30
2022-10-18T10:22:37.364Z,11.40
2022-10-18T10:23:37.348Z,10.70
2022-10-18T10:24:37.325Z,10.90
2022-10-18T10:25:37.315Z,10.20
2022-10-18T10:26:37.306Z,10.10
2022-10-18T10:27:37.294Z,10.00
2022-10-18T10:28:37.431Z,10.60
2022-10-18T10:29:44.361Z,11.10
2022-10-18T10:30:39.269Z,10.40
2022-10-18T10:31:37.262Z,9.80
2022-10-18T10:32:37.276Z,10.60
2022-10-18T10:33:37.260Z,9.70
2022-10-18T10:34:39.830Z,10.00
2022-10-18T10:35:54.267Z,11.00
2022-10-18T10:36:39.207Z,10.70
2022-10-18T10:37:37.212Z,10.00
2022-10-18T10:38:37.200Z,10.60
2022-10-18T10:39:37.178Z,11.00
2022-10-18T10:40:37.169Z,10.40
2022-10-18T10:41:37.155Z,10.10
2022-10-18T10:42:37.150Z,10.30
2022-10-18T10:43:38.880Z,10.90
2022-10-18T10:44:38.128Z,9.90
2022-10-18T10:45:37.114Z,9.50
2022-10-18T10:46:37.107Z,9.70
2022-10-18T10:47:37.100Z,10.00
2022-10-18T10:48:37.102Z,8.80
2022-10-18T10:49:41.327Z,9.30
2022-10-18T10:50:39.408Z,9.10
2022-10-18T10:51:37.062Z,9.30
2022-10-18T10:52:37.489Z,9.70
2022-10-18T10:53:37.064Z,9.70
2022-10-18T10:54:37.034Z,10.00
2022-10-18T10:55:37.021Z,9.40
2022-10-18T10:56:37.014Z,9.70
2022-10-18T10:57:37.000Z,10.20
2022-10-18T10:58:37.004Z,10.10
2022-10-18T10:59:37.020Z,9.50
2022-10-18T11:00:36.972Z,9.30
2022-10-18T11:01:36.960Z,9.80
2022-10-18T11:02:36.947Z,9.00
2022-10-18T11:03:36.971Z,9.20
2022-10-18T11:04:36.932Z,9.30
2022-10-18T11:05:36.924Z,8.90
2022-10-18T11:06:36.914Z,7.70
2022-10-18T11:07:36.901Z,7.50
2022-10-18T11:08:36.948Z,7.10
2022-10-18T11:09:36.890Z,6.80
2022-10-18T11:10:36.874Z,7.00
2022-10-18T11:11:36.863Z,6.90
2022-10-18T11:12:36.852Z,7.10
2022-10-18T11:13:36.875Z,7.00
2022-10-18T11:14:36.834Z,7.20
2022-10-18T11:15:36.839Z,7.10
2022-10-18T11:16:36.822Z,6.80
2022-10-18T11:17:36.804Z,6.70
2022-10-18T11:18:36.822Z,6.40
2022-10-18T11:19:36.790Z,6.40
2022-10-18T11:20:36.781Z,6.20
2022-10-18T11:21:36.771Z,7.00
2022-10-18T11:22:36.760Z,7.10
2022-10-18T11:23:36.764Z,6.40
2022-10-18T11:24:36.739Z,7.20
2022-10-18T11:25:36.732Z,6.40
2022-10-18T11:26:40.984Z,6.00
2022-10-18T11:27:38.714Z,6.30
2022-10-18T11:28:36.767Z,5.80
2022-10-18T11:29:36.694Z,6.30
2022-10-18T11:30:36.686Z,6.10
2022-10-18T11:31:36.672Z,5.90
2022-10-18T11:32:36.664Z,6.10
2022-10-18T11:34:03.517Z,6.00
2022-10-18T11:34:38.656Z,5.60
2022-10-18T11:35:36.632Z,5.50
2022-10-18T11:36:36.905Z,5.40
2022-10-18T11:37:38.593Z,5.30
2022-10-18T11:38:37.601Z,5.60
2022-10-18T11:39:36.607Z,6.00
2022-10-18T11:40:36.582Z,5.40
2022-10-18T11:41:36.569Z,4.90
2022-10-18T11:42:39.783Z,5.40
2022-10-18T11:43:57.490Z,4.70
2022-10-18T11:44:38.558Z,5.60
2022-10-18T11:45:36.537Z,5.50
2022-10-18T11:46:36.525Z,5.00
2022-10-18T11:47:36.520Z,5.00
2022-10-18T11:48:36.507Z,5.60
2022-10-18T11:49:36.505Z,6.10
2022-10-18T11:50:36.487Z,5.60
2022-10-18T11:51:50.319Z,6.80
2022-10-18T11:52:38.470Z,6.20
2022-10-18T11:53:36.460Z,6.30
2022-10-18T11:54:36.519Z,6.80
2022-10-18T11:55:36.440Z,6.30
2022-10-18T11:56:36.434Z,6.70
2022-10-18T11:57:36.418Z,6.90
2022-10-18T11:58:36.456Z,6.60
2022-10-18T11:59:36.415Z,6.30
2022-10-18T12:00:36.391Z,6.40
2022-10-18T12:01:36.385Z,6.20
2022-10-18T12:02:36.644Z,5.50
2022-10-18T12:03:36.375Z,6.00
2022-10-18T12:04:40.915Z,5.90
2022-10-18T12:05:37.378Z,5.70
2022-10-18T12:06:36.338Z,5.50
2022-10-18T12:07:36.330Z,5.70
2022-10-18T12:08:36.319Z,5.50
2022-10-18T12:09:36.386Z,5.30
2022-10-18T12:10:52.577Z,5.20
2022-10-18T12:11:38.290Z,5.20
2022-10-18T12:12:36.275Z,5.40
2022-10-18T12:13:36.273Z,5.10
2022-10-18T12:14:36.277Z,5.40
2022-10-18T12:15:36.254Z,5.20
2022-10-18T12:16:51.089Z,5.30
2022-10-18T12:17:51.230Z,6.10
2022-10-18T12:18:38.223Z,5.50
2022-10-18T12:19:36.220Z,5.40
2022-10-18T12:20:36.202Z,6.00
2022-10-18T12:21:36.192Z,5.70
2022-10-18T12:22:36.180Z,5.00
2022-10-18T12:23:36.160Z,5.50
2022-10-18T12:24:37.175Z,5.40
2022-10-18T12:25:36.149Z,5.50
2022-10-18T12:26:36.142Z,5.60
2022-10-18T12:27:36.134Z,4.90
2022-10-18T12:28:36.154Z,5.30
2022-10-18T12:29:36.122Z,5.40
2022-10-18T12:30:36.101Z,5.00
2022-10-18T12:31:36.093Z,5.60
2022-10-18T12:32:36.082Z,5.00
2022-10-18T12:33:36.118Z,5.30
2022-10-18T12:34:36.094Z,5.30
2022-10-18T12:35:36.066Z,5.70
2022-10-18T12:36:36.093Z,5.40
2022-10-18T12:37:36.250Z,5.40
2022-10-18T12:38:36.021Z,5.60
2022-10-18T12:39:43.635Z,6.00
2022-10-18T12:40:38.000Z,5.80
2022-10-18T12:41:35.991Z,5.60
2022-10-18T12:42:35.989Z,6.00
2022-10-18T12:43:35.973Z,5.50
2022-10-18T12:44:35.977Z,5.70
2022-10-18T12:45:35.956Z,5.50
2022-10-18T12:46:35.951Z,5.50
2022-10-18T12:47:36.028Z,6.10
2022-10-18T12:48:35.930Z,5.80
2022-10-18T12:49:36.737Z,5.60
2022-10-18T12:50:35.918Z,5.60
2022-10-18T12:51:35.909Z,5.40
2022-10-18T12:52:35.891Z,5.80
2022-10-18T12:53:35.878Z,6.20
2022-10-18T12:54:35.875Z,5.80
2022-10-18T12:55:35.887Z,5.80
2022-10-18T12:56:35.850Z,6.00
2022-10-18T12:57:35.843Z,5.80
2022-10-18T12:58:35.835Z,5.90
2022-10-18T12:59:35.836Z,5.70
2022-10-18T13:00:35.813Z,6.00
2022-10-18T13:01:35.861Z,5.60
2022-10-18T13:02:36.072Z,5.60
2022-10-18T13:03:35.789Z,5.60
2022-10-18T13:04:35.785Z,5.50
2022-10-18T13:05:48.738Z,5.60
2022-10-18T13:06:36.754Z,6.00